Terminal Aerodrome Forecast
Issued by NWS Shreveport, LA

Home | Current Version | Previous Version | Text Only | Print | Product List | Glossary On
Versions: 1 2 3 4 5 6 7 8 9 10 11 12 13 14 15 16 17 18
000
FTUS44 KSHV 311156
TAFSHV
TAF
KSHV 311156Z 3112/0112 VRB03KT 6SM BR FEW050 BKN090 BKN250
     FM311300 17004KT P6SM FEW050 BKN090
     FM311500 17005KT P6SM BKN045 BKN250
     FM312100 20006KT P6SM SCT045 OVC250
     FM010000 17005KT P6SM OVC250
     FM011000 18002KT 6SM BR OVC100=

USA.gov is the U.S. government's official web portal to all federal, state and local government web resources and services.